SBBHSBRJ

Guest
Details From SBBH - Pampulha
To SBRJ - Santos-Dumont
Flight Number -
Tags generated
Created
Modified
Stats Distance 190 nm / 352 km
Max Altitude 21,300 ft / 6,492 m
Waypoints 3
Social Downloads 1
Likes 0
Share VATSIM

Download

Looking for another format? Having issues loading an existing format? Contact us
Advertisement - Login to hide

Notes

Basic altitude profile: - Ascent Rate: 2500ft/min - Ascent Speed: 250kts - Cruise Altitude: 35000ft - Cruise Speed: 420kts - Descent Rate: 1500ft/min - Descent Speed: 250kts Options: - Use NATs: yes - Use PACOTS: yes - Use low airways: yes - Use high airways: yes

Route

SBBH BBC SBRJ

ID Type Via Altitude (ft/m) Position (lat/lon) Dist (leg/tot) Name
O SBBH APT - 0 / 0 -19.85118 / -43.95063 - / 0 nm Pampulha
BBC NDB - 21,300 / 6,492 -21.26700 / -43.76417 85 / 85 nm BARBACENA NDB
O SBRJ APT - 0 / 0 -22.91046 / -43.16313 104 / 189 nm Santos-Dumont

Altitude Profile

Advertisement - Login to hide

Weather


0- 5 10 15 20 25 30 35+ Temperature / °C

Clouds and Precipitation
Forecast for 2019-11-13 18:00 UTC. Updated an hour ago

Ground ~20,000 ft ~40,000 ft Winds

SBBH

Details ICAO SBBH (PLU)
Name Pampulha-Belo Horizonte
Region Brazil
Timezone America/Sao_Paulo (UTC-2.0)
Stats Elevation 2,589 ft / 789 m (AMSL)
Location -19.850800° -43.949900°
Runways 1
Magnetic Variation 22.980° W

METAR

SBBH 131600Z 09008KT 9999 BKN045 28/14 Q1016

Decode

TAF

Not found

Departure Runways

ID Width Length Bearing (true/mag) Surface Threshold Overrun Markings Lighting
13 148 ft / 45 m 7,751 ft / 2,362 m 110.89° / 133.87° ASPHALT 0 ft / 0 m 472 ft / 144 m APP EDGE THRESHOLD
31 148 ft / 45 m 7,751 ft / 2,362 m 290.88° / 313.86° ASPHALT 0 ft / 0 m 482 ft / 147 m APP EDGE THRESHOLD

SBRJ

Details ICAO SBRJ (SDU)
Name Santos Dumont-Rio de Janeiro
Region Brazil
Timezone Unknown
Stats Elevation 10 ft / 3 m (AMSL)
Location -22.910500° -43.163200°
Runways 2
Magnetic Variation 22.973° W

METAR

SBRJ 131600Z 15008KT 9999 FEW015 BKN030 BKN050 26/22 Q1015

Decode

TAF

TAF SBRJ 130926Z 1312/1324 11010KT 8000 SCT017 BKN040 TX26/1317Z TN23/1324Z RMK PHI

Decode

Destination Runways

ID Width Length Bearing (true/mag) Surface Threshold Overrun Markings Lighting
02L 98 ft / 30 m 4,113 ft / 1,254 m 356.54° / 19.51° ASPHALT 0 ft / 0 m 0 ft / 0 m PREC-APP EDGE THRESHOLD REIL-OMNI
02R 138 ft / 42 m 4,328 ft / 1,319 m 356.56° / 19.53° ASPHALT 0 ft / 0 m 0 ft / 0 m PREC-APP EDGE THRESHOLD REIL-OMNI
20L 138 ft / 42 m 4,328 ft / 1,319 m 176.56° / 199.53° ASPHALT 0 ft / 0 m 0 ft / 0 m PREC-APP EDGE THRESHOLD REIL-OMNI
20R 98 ft / 30 m 4,113 ft / 1,254 m 176.54° / 199.51° ASPHALT 0 ft / 0 m 0 ft / 0 m PREC-APP EDGE THRESHOLD REIL-OMNI

Approach Navaids

Runway Type Ident Frequency Range Bearing (true/mag) Slope Elevation
20L LOC-LOC IRJ 111.10 MHz 18 nm / 33 km 172.42° / 195.39 ° - 11 ft / 3 m (AMSL)

Popular Alternatives